Time;durP1;ratioP1;P1;durP2;ratioP2;P2;SDS_P1;SDS_P2;PMS_P1;PMS_P2;Temp;Humidity;BMP_temperature;BMP_pressure;BME280_temperature;BME280_humidity;BME280_pressure;Samples;Min_cycle;Max_cycle;Signal;HPM_P1;HPM_P2
2022/01/31 00:00:17;;;;;;;10.30;3.75;;;;;;;;;;4952317;29;20047;-60
2022/01/31 00:02:45;;;;;;;14.18;4.00;;;;;;;;;;4952627;29;20105;-60
2022/01/31 00:05:12;;;;;;;11.60;3.38;;;;;;;;;;4952773;29;20099;-61
2022/01/31 00:07:38;;;;;;;10.60;3.50;;;;;;;;;;4952720;29;20027;-61
2022/01/31 00:10:08;;;;;;;12.77;3.38;;;;;;;;;;4952789;29;20041;-61
2022/01/31 00:12:45;;;;;;;8.88;3.05;;;;;;;;;;4953010;29;20030;-61
2022/01/31 00:15:11;;;;;;;11.82;3.30;;;;;;;;;;4952946;29;20027;-61
2022/01/31 00:17:38;;;;;;;10.55;3.00;;;;;;;;;;4952718;29;20023;-61
2022/01/31 00:20:04;;;;;;;10.65;3.50;;;;;;;;;;4953013;28;20475;-60
2022/01/31 00:22:30;;;;;;;11.52;3.47;;;;;;;;;;4952935;29;20027;-61
2022/01/31 00:24:56;;;;;;;12.93;5.00;;;;;;;;;;4952821;29;20019;-60
2022/01/31 00:27:22;;;;;;;11.52;3.17;;;;;;;;;;4953062;29;20031;-61
2022/01/31 00:29:48;;;;;;;9.00;3.00;;;;;;;;;;4952481;29;20024;-61
2022/01/31 00:32:14;;;;;;;11.15;3.13;;;;;;;;;;4952684;29;20391;-62
2022/01/31 00:34:40;;;;;;;8.18;2.40;;;;;;;;;;4952705;29;20468;-62
2022/01/31 00:37:06;;;;;;;8.82;2.85;;;;;;;;;;4955809;28;20038;-62
2022/01/31 00:39:35;;;;;;;9.48;2.80;;;;;;;;;;4955842;29;20051;-62
2022/01/31 00:42:03;;;;;;;9.45;2.88;;;;;;;;;;4956459;29;20023;-62
2022/01/31 00:44:40;;;;;;;7.35;2.45;;;;;;;;;;4939669;29;20378;-62
2022/01/31 00:47:18;;;;;;;7.95;2.47;;;;;;;;;;4956388;29;20502;-62
2022/01/31 00:50:07;;;;;;;14.15;2.60;;;;;;;;;;4956020;28;20479;-62
2022/01/31 00:52:30;;;;;;;9.40;2.72;;;;;;;;;;4955590;29;20043;-61
2022/01/31 00:54:56;;;;;;;8.10;2.80;;;;;;;;;;4956183;29;20049;-61
2022/01/31 00:57:22;;;;;;;7.88;2.40;;;;;;;;;;4955922;29;20137;-61
2022/01/31 00:59:51;;;;;;;7.57;2.90;;;;;;;;;;4956064;29;20035;-61
2022/01/31 01:02:17;;;;;;;7.28;2.30;;;;;;;;;;4956278;29;20023;-61
2022/01/31 01:04:43;;;;;;;7.82;2.53;;;;;;;;;;4955923;29;20451;-61
2022/01/31 01:07:09;;;;;;;7.90;2.47;;;;;;;;;;4955974;29;20414;-61
2022/01/31 01:09:37;;;;;;;10.35;2.38;;;;;;;;;;4955613;29;20078;-62
2022/01/31 01:12:03;;;;;;;9.00;2.50;;;;;;;;;;4956218;29;20032;-61
2022/01/31 05:41:38;;;;;;;15.13;3.70;;;;;;;;;;5190001;23;20271;-61
2022/01/31 05:44:04;;;;;;;17.63;3.90;;;;;;;;;;4974311;28;20094;-61
2022/01/31 05:46:30;;;;;;;17.48;3.35;;;;;;;;;;4974519;28;20101;-61
2022/01/31 05:48:56;;;;;;;12.73;3.38;;;;;;;;;;4974355;28;20076;-61
2022/01/31 05:51:23;;;;;;;16.42;3.92;;;;;;;;;;4974076;28;20391;-61
2022/01/31 05:53:50;;;;;;;14.05;3.58;;;;;;;;;;4974161;28;20101;-62
2022/01/31 05:56:17;;;;;;;18.27;4.10;;;;;;;;;;4974300;28;20027;-61
2022/01/31 05:58:43;;;;;;;18.63;5.63;;;;;;;;;;4974110;28;20032;-62
2022/01/31 06:01:10;;;;;;;35.80;14.90;;;;;;;;;;4974125;28;20035;-62
2022/01/31 06:03:37;;;;;;;65.30;30.80;;;;;;;;;;4956719;28;20434;-62
2022/01/31 06:06:04;;;;;;;50.17;20.35;;;;;;;;;;4974016;28;20390;-62
2022/01/31 06:08:30;;;;;;;81.68;34.35;;;;;;;;;;4973797;28;20034;-61
2022/01/31 06:10:57;;;;;;;50.33;22.80;;;;;;;;;;4973617;28;20513;-62
2022/01/31 06:13:26;;;;;;;56.10;24.05;;;;;;;;;;4974036;28;20031;-62
2022/01/31 06:15:52;;;;;;;59.13;27.23;;;;;;;;;;4973490;28;20062;-60
2022/01/31 06:18:18;;;;;;;44.65;20.48;;;;;;;;;;4973798;28;20034;-61
2022/01/31 06:20:44;;;;;;;59.47;27.55;;;;;;;;;;4974379;28;20027;-62
2022/01/31 06:23:11;;;;;;;54.83;25.33;;;;;;;;;;4974051;28;20525;-62
2022/01/31 06:25:38;;;;;;;70.10;32.38;;;;;;;;;;4973538;28;20053;-63
2022/01/31 06:28:05;;;;;;;82.38;36.08;;;;;;;;;;4973019;28;20037;-63
2022/01/31 06:30:31;;;;;;;79.30;34.95;;;;;;;;;;4972865;28;20026;-63
2022/01/31 06:32:57;;;;;;;100.30;47.80;;;;;;;;;;4973230;28;20410;-61
2022/01/31 06:35:24;;;;;;;97.43;45.72;;;;;;;;;;4955998;28;20034;-62
2022/01/31 06:37:50;;;;;;;89.43;39.40;;;;;;;;;;4973220;28;20031;-62
2022/01/31 06:40:16;;;;;;;71.70;32.70;;;;;;;;;;4973294;28;20109;-62
2022/01/31 06:42:43;;;;;;;59.75;32.15;;;;;;;;;;4973013;28;20121;-61
2022/01/31 06:45:09;;;;;;;58.30;30.55;;;;;;;;;;4973466;28;20030;-63
2022/01/31 06:47:35;;;;;;;52.95;27.90;;;;;;;;;;4973203;28;20383;-63
2022/01/31 06:50:04;;;;;;;51.22;25.15;;;;;;;;;;4973175;28;20162;-64
2022/01/31 06:52:33;;;;;;;51.58;23.70;;;;;;;;;;4973166;28;20113;-62
2022/01/31 06:55:04;;;;;;;51.72;21.85;;;;;;;;;;4974095;28;20030;-65
2022/01/31 06:57:36;;;;;;;39.35;15.15;;;;;;;;;;4973928;28;20033;-63
2022/01/31 07:00:04;;;;;;;48.08;19.85;;;;;;;;;;4973083;28;20153;-64
2022/01/31 07:02:30;;;;;;;70.35;35.47;;;;;;;;;;4973261;28;20036;-61
2022/01/31 07:04:56;;;;;;;76.20;39.78;;;;;;;;;;4972807;28;20050;-63
2022/01/31 07:07:22;;;;;;;92.85;44.97;;;;;;;;;;4973079;28;20030;-62
2022/01/31 07:09:48;;;;;;;106.05;50.90;;;;;;;;;;4952618;28;20082;-63
2022/01/31 07:12:16;;;;;;;119.80;66.28;;;;;;;;;;4943966;29;20160;-65
2022/01/31 07:14:44;;;;;;;112.30;59.53;;;;;;;;;;4942974;29;20047;-64
2022/01/31 07:17:10;;;;;;;74.03;37.80;;;;;;;;;;4941498;29;20020;-62
2022/01/31 07:19:38;;;;;;;75.63;36.10;;;;;;;;;;4943266;29;20078;-63
2022/01/31 07:22:09;;;;;;;56.25;26.33;;;;;;;;;;4938890;29;20020;-66
2022/01/31 07:27:01;;;;;;;50.63;20.88;;;;;;;;;;4934407;29;20035;-62
2022/01/31 07:29:28;;;;;;;35.70;13.05;;;;;;;;;;4934135;29;20063;-63
2022/01/31 07:31:54;;;;;;;29.10;9.95;;;;;;;;;;4933885;29;20032;-62
2022/01/31 07:34:20;;;;;;;23.10;8.43;;;;;;;;;;4933923;29;20028;-62
2022/01/31 07:36:47;;;;;;;26.33;9.05;;;;;;;;;;4934151;29;20032;-62
2022/01/31 07:39:13;;;;;;;31.75;9.75;;;;;;;;;;4933768;29;20125;-63
2022/01/31 07:41:39;;;;;;;29.08;9.52;;;;;;;;;;4933589;29;20036;-63
2022/01/31 07:44:06;;;;;;;26.65;9.27;;;;;;;;;;4933734;29;20488;-63
2022/01/31 07:46:32;;;;;;;28.63;10.55;;;;;;;;;;4933122;29;20036;-63
2022/01/31 07:48:58;;;;;;;33.97;11.23;;;;;;;;;;4933790;29;20028;-64
2022/01/31 07:51:24;;;;;;;53.55;19.83;;;;;;;;;;4933755;29;20487;-63
2022/01/31 07:53:50;;;;;;;34.17;11.77;;;;;;;;;;4934066;29;20028;-63
2022/01/31 07:56:17;;;;;;;31.63;11.15;;;;;;;;;;4933749;29;20031;-63
2022/01/31 07:58:43;;;;;;;32.42;10.43;;;;;;;;;;4933895;29;20015;-64
2022/01/31 08:01:10;;;;;;;26.75;10.10;;;;;;;;;;4933768;29;20024;-63
2022/01/31 08:03:36;;;;;;;27.92;11.43;;;;;;;;;;4933984;29;20716;-63
2022/01/31 08:06:03;;;;;;;36.70;13.73;;;;;;;;;;4933830;29;20039;-63
2022/01/31 08:08:30;;;;;;;34.35;13.05;;;;;;;;;;4933887;29;20031;-64
2022/01/31 08:11:00;;;;;;;31.90;11.52;;;;;;;;;;4933057;29;20087;-63
2022/01/31 08:13:26;;;;;;;31.67;10.65;;;;;;;;;;4933709;29;20038;-63
2022/01/31 08:16:26;;;;;;;29.30;11.73;;;;;;;;;;4933442;29;20125;-63
2022/01/31 08:18:46;;;;;;;32.85;12.90;;;;;;;;;;4931388;29;20487;-63
2022/01/31 08:21:14;;;;;;;38.78;14.00;;;;;;;;;;4933134;29;20036;-63
2022/01/31 08:23:40;;;;;;;37.35;13.90;;;;;;;;;;4933246;29;20024;-63
2022/01/31 08:26:08;;;;;;;37.05;13.90;;;;;;;;;;4933451;29;20380;-63
2022/01/31 08:28:38;;;;;;;36.35;12.05;;;;;;;;;;4933293;29;20063;-63
2022/01/31 08:31:15;;;;;;;32.03;11.13;;;;;;;;;;4933380;29;20048;-63
2022/01/31 08:33:49;;;;;;;37.38;12.23;;;;;;;;;;4933249;29;20034;-64
2022/01/31 08:36:16;;;;;;;29.30;11.88;;;;;;;;;;4937077;28;20083;-63
2022/01/31 08:38:42;;;;;;;32.28;11.13;;;;;;;;;;4944583;28;20090;-63
2022/01/31 08:41:09;;;;;;;30.38;10.60;;;;;;;;;;4940710;29;20019;-62
2022/01/31 08:43:36;;;;;;;32.10;10.68;;;;;;;;;;4941350;29;20106;-63
2022/01/31 08:46:02;;;;;;;31.08;9.88;;;;;;;;;;4944141;29;20535;-63
2022/01/31 08:48:30;;;;;;;30.25;8.98;;;;;;;;;;4924765;29;20522;-62
2022/01/31 08:50:56;;;;;;;27.90;8.60;;;;;;;;;;4941564;29;20075;-63
2022/01/31 08:53:22;;;;;;;24.25;8.30;;;;;;;;;;4940347;29;20019;-63
2022/01/31 08:55:53;;;;;;;24.70;7.93;;;;;;;;;;4943040;29;20083;-64
2022/01/31 08:58:20;;;;;;;25.02;7.82;;;;;;;;;;4947973;29;20104;-63
2022/01/31 09:00:57;;;;;;;28.83;8.93;;;;;;;;;;4954954;29;20042;-63
2022/01/31 09:06:11;;;;;;;22.77;8.07;;;;;;;;;;4956889;29;20034;-63
2022/01/31 09:08:37;;;;;;;22.73;7.60;;;;;;;;;;4956792;29;20492;-63
2022/01/31 09:11:04;;;;;;;25.60;7.28;;;;;;;;;;4955321;29;20397;-62
2022/01/31 09:13:30;;;;;;;23.80;6.93;;;;;;;;;;4952244;29;20026;-63
2022/01/31 09:15:56;;;;;;;21.67;7.65;;;;;;;;;;4926187;29;20030;-63
2022/01/31 09:18:22;;;;;;;20.65;7.70;;;;;;;;;;4936191;29;20480;-62
2022/01/31 09:20:48;;;;;;;31.25;9.02;;;;;;;;;;4936119;29;20024;-61
2022/01/31 09:23:14;;;;;;;36.42;9.18;;;;;;;;;;4940671;29;20106;-61
2022/01/31 09:25:45;;;;;;;25.63;8.60;;;;;;;;;;4954839;29;20024;-61
2022/01/31 09:28:11;;;;;;;26.98;8.60;;;;;;;;;;4955002;29;20055;-69
2022/01/31 09:30:38;;;;;;;25.88;8.27;;;;;;;;;;4937136;29;20036;-63
2022/01/31 09:33:04;;;;;;;23.80;7.45;;;;;;;;;;4936606;28;20487;-61
2022/01/31 09:35:30;;;;;;;28.05;7.90;;;;;;;;;;4962825;28;20121;-63
2022/01/31 09:37:56;;;;;;;21.42;6.90;;;;;;;;;;4974244;28;20486;-62
2022/01/31 09:40:23;;;;;;;23.30;8.00;;;;;;;;;;4973919;28;20038;-62
2022/01/31 09:48:33;;;;;;;27.30;8.82;;;;;;;;;;4955004;29;20090;-62
2022/01/31 09:51:05;;;;;;;26.77;8.00;;;;;;;;;;4954970;29;20062;-62
2022/01/31 09:53:31;;;;;;;;;;;;;;;;;;4955345;29;20027;-62
2022/01/31 09:55:57;;;;;;;29.52;8.13;;;;;;;;;;4954545;29;19918;-63
2022/01/31 09:58:29;;;;;;;32.55;8.55;;;;;;;;;;4954731;29;20027;-62
2022/01/31 10:01:04;;;;;;;35.40;8.43;;;;;;;;;;4954805;29;20030;-61
2022/01/31 10:03:30;;;;;;;20.08;7.43;;;;;;;;;;4954559;29;20563;-62
2022/01/31 10:05:56;;;;;;;23.83;7.20;;;;;;;;;;4937326;29;20038;-63
2022/01/31 10:08:22;;;;;;;20.17;6.00;;;;;;;;;;4936180;29;20391;-63
2022/01/31 10:10:49;;;;;;;24.13;7.07;;;;;;;;;;4954089;29;20032;-62
2022/01/31 10:16:30;;;;;;;17.42;5.00;;;;;;;;;;4954364;29;20069;-62
2022/01/31 10:18:59;;;;;;;19.92;5.70;;;;;;;;;;4951020;29;20031;-61
2022/01/31 10:21:25;;;;;;;17.40;4.70;;;;;;;;;;4939012;29;20031;-62
2022/01/31 10:23:52;;;;;;;22.67;5.50;;;;;;;;;;4936059;29;20372;-62
2022/01/31 10:26:28;;;;;;;19.65;6.03;;;;;;;;;;4935348;29;20042;-63
2022/01/31 10:29:14;;;;;;;23.35;7.07;;;;;;;;;;4917873;29;20498;-63
2022/01/31 10:31:58;;;;;;;24.70;7.32;;;;;;;;;;4934825;29;20107;-62
2022/01/31 10:34:25;;;;;;;27.30;7.68;;;;;;;;;;4936907;29;20026;-62
2022/01/31 10:36:52;;;;;;;22.30;6.20;;;;;;;;;;4934964;29;20031;-60
2022/01/31 10:45:34;;;;;;;19.25;5.20;;;;;;;;;;4838857;29;20073;-61
2022/01/31 10:53:42;;;;;;;17.00;4.20;;;;;;;;;;4838715;29;20042;-61
2022/01/31 10:56:08;;;;;;;15.48;4.25;;;;;;;;;;4839540;29;20033;-62
2022/01/31 10:58:35;;;;;;;12.80;3.28;;;;;;;;;;4824091;29;20434;-61
2022/01/31 11:01:14;;;;;;;16.70;3.90;;;;;;;;;;4838659;29;20125;-60
2022/01/31 11:03:41;;;;;;;14.80;4.35;;;;;;;;;;4839410;29;20044;-61
2022/01/31 11:06:08;;;;;;;21.85;4.28;;;;;;;;;;4839028;29;20030;-62
2022/01/31 11:08:35;;;;;;;23.55;5.03;;;;;;;;;;4839069;29;20133;-60
2022/01/31 11:11:01;;;;;;;16.23;4.32;;;;;;;;;;4838948;29;20040;-61
2022/01/31 11:13:29;;;;;;;13.80;4.00;;;;;;;;;;4847815;29;20386;-61
2022/01/31 11:15:56;;;;;;;16.25;4.18;;;;;;;;;;4856653;29;20034;-60
2022/01/31 11:18:23;;;;;;;16.08;3.90;;;;;;;;;;4856553;29;20072;-63
2022/01/31 11:20:50;;;;;;;14.50;3.90;;;;;;;;;;4913221;29;20058;-62
2022/01/31 11:23:16;;;;;;;14.15;4.13;;;;;;;;;;4953577;29;20027;-62
2022/01/31 11:25:43;;;;;;;16.73;5.18;;;;;;;;;;4953237;29;20028;-61
2022/01/31 11:28:11;;;;;;;18.52;6.47;;;;;;;;;;4952954;29;20038;-61
2022/01/31 11:30:37;;;;;;;16.45;4.20;;;;;;;;;;4953390;29;20066;-61
2022/01/31 11:33:03;;;;;;;14.80;4.75;;;;;;;;;;4953188;29;20035;-62
2022/01/31 11:35:29;;;;;;;10.77;3.70;;;;;;;;;;4953109;29;20031;-62
2022/01/31 11:37:56;;;;;;;18.08;4.53;;;;;;;;;;4953218;29;20113;-61
2022/01/31 11:40:22;;;;;;;15.65;4.38;;;;;;;;;;4952774;29;20035;-62
2022/01/31 11:42:49;;;;;;;17.45;4.45;;;;;;;;;;4952462;28;20058;-63
2022/01/31 11:45:20;;;;;;;19.25;5.65;;;;;;;;;;4952910;29;20031;-61
2022/01/31 11:47:52;;;;;;;23.95;6.55;;;;;;;;;;4952904;29;20023;-62
2022/01/31 11:50:19;;;;;;;20.13;5.78;;;;;;;;;;4952863;29;20122;-62
2022/01/31 11:52:54;;;;;;;18.73;5.85;;;;;;;;;;4952685;29;20435;-62
2022/01/31 11:55:21;;;;;;;17.17;5.00;;;;;;;;;;4952635;29;20031;-61
2022/01/31 11:57:48;;;;;;;23.23;6.50;;;;;;;;;;4951746;29;20112;-59
2022/01/31 12:00:17;;;;;;;13.05;3.75;;;;;;;;;;4941863;29;20031;-61
2022/01/31 12:02:44;;;;;;;17.45;4.50;;;;;;;;;;4952434;29;20034;-60
2022/01/31 12:05:19;;;;;;;15.95;4.60;;;;;;;;;;4952542;29;20031;-60
2022/01/31 12:07:46;;;;;;;17.45;4.38;;;;;;;;;;4952409;29;20039;-61
2022/01/31 12:10:22;;;;;;;14.70;4.55;;;;;;;;;;4952499;29;20391;-61
2022/01/31 12:16:01;;;;;;;21.45;7.80;;;;;;;;;;4874874;29;20581;-62
2022/01/31 12:23:48;;;;;;;19.92;4.90;;;;;;;;;;4874729;29;20060;-61
2022/01/31 12:26:30;;;;;;;16.92;4.00;;;;;;;;;;4874525;29;20410;-60
2022/01/31 12:29:13;;;;;;;15.00;3.65;;;;;;;;;;4874278;29;20474;-63
2022/01/31 12:31:39;;;;;;;13.82;4.53;;;;;;;;;;4875434;29;20053;-62
2022/01/31 12:34:17;;;;;;;16.65;4.50;;;;;;;;;;4878141;29;20140;-61
2022/01/31 12:36:43;;;;;;;13.05;3.45;;;;;;;;;;4862531;29;20116;-62
2022/01/31 12:39:28;;;;;;;13.00;3.65;;;;;;;;;;4858931;29;20049;-62
2022/01/31 12:42:01;;;;;;;15.55;3.55;;;;;;;;;;4867359;29;20057;-62
2022/01/31 12:44:30;;;;;;;15.85;4.53;;;;;;;;;;4875921;29;20060;-63
2022/01/31 12:47:08;;;;;;;16.05;4.57;;;;;;;;;;4877623;29;20037;-64
2022/01/31 12:49:34;;;;;;;20.35;4.75;;;;;;;;;;4877641;29;20482;-63
2022/01/31 12:52:00;;;;;;;18.15;5.47;;;;;;;;;;4936125;29;20055;-63
2022/01/31 12:54:27;;;;;;;19.70;5.57;;;;;;;;;;4955695;29;20106;-63
2022/01/31 12:56:53;;;;;;;20.02;5.63;;;;;;;;;;4955329;29;20023;-63
2022/01/31 12:59:21;;;;;;;20.58;4.30;;;;;;;;;;4955476;29;20024;-64
2022/01/31 13:01:48;;;;;;;16.48;4.05;;;;;;;;;;4955466;29;20387;-63
2022/01/31 13:04:14;;;;;;;16.20;4.38;;;;;;;;;;4955350;29;20051;-64
2022/01/31 13:06:47;;;;;;;16.52;4.75;;;;;;;;;;4949244;29;20035;-63
2022/01/31 13:09:13;;;;;;;;;;;;;;;;;;4922141;29;20668;-63
2022/01/31 13:11:40;;;;;;;20.55;5.72;;;;;;;;;;4925978;29;19918;-63
2022/01/31 13:14:07;;;;;;;17.58;6.00;;;;;;;;;;4926754;29;20391;-63
2022/01/31 13:16:38;;;;;;;18.02;4.88;;;;;;;;;;4930906;29;20502;-64
2022/01/31 13:19:14;;;;;;;17.42;5.10;;;;;;;;;;4936332;29;20032;-64
2022/01/31 13:21:40;;;;;;;18.58;4.90;;;;;;;;;;4935995;29;20079;-63
2022/01/31 13:24:06;;;;;;;17.23;5.13;;;;;;;;;;4936233;29;20028;-63
2022/01/31 13:26:46;;;;;;;17.17;5.90;;;;;;;;;;4935761;29;20016;-64
2022/01/31 13:29:25;;;;;;;19.45;5.45;;;;;;;;;;4936236;29;20515;-64
2022/01/31 13:31:51;;;;;;;23.75;6.60;;;;;;;;;;4936117;29;20055;-63
2022/01/31 13:34:32;;;;;;;25.35;6.60;;;;;;;;;;4936047;29;20039;-64
2022/01/31 13:36:58;;;;;;;24.50;6.60;;;;;;;;;;4935964;29;20058;-65
2022/01/31 13:39:24;;;;;;;19.67;5.88;;;;;;;;;;4927694;29;20035;-63
2022/01/31 13:41:50;;;;;;;20.60;6.13;;;;;;;;;;4927225;29;20047;-64
2022/01/31 13:44:18;;;;;;;14.40;4.93;;;;;;;;;;4933132;29;20507;-64
2022/01/31 13:46:50;;;;;;;17.73;5.07;;;;;;;;;;4934348;29;20107;-63
2022/01/31 13:49:19;;;;;;;15.52;4.18;;;;;;;;;;4934887;29;20051;-64
2022/01/31 13:51:47;;;;;;;16.15;4.65;;;;;;;;;;4935103;29;20043;-63
2022/01/31 13:54:15;;;;;;;23.65;5.53;;;;;;;;;;4935467;29;20024;-63
2022/01/31 13:56:49;;;;;;;14.90;4.63;;;;;;;;;;4935098;29;20036;-63
2022/01/31 13:59:17;;;;;;;16.73;4.68;;;;;;;;;;4935227;29;20059;-63
2022/01/31 14:01:43;;;;;;;21.55;5.28;;;;;;;;;;4935336;29;20043;-62
2022/01/31 14:04:14;;;;;;;20.90;6.25;;;;;;;;;;4934644;29;20038;-63
2022/01/31 14:06:40;;;;;;;20.27;6.80;;;;;;;;;;4935448;29;20028;-63
2022/01/31 14:09:10;;;;;;;18.85;5.60;;;;;;;;;;4935182;29;20035;-64
2022/01/31 14:11:36;;;;;;;16.90;5.25;;;;;;;;;;4934709;29;20039;-64
2022/01/31 14:14:02;;;;;;;22.48;6.15;;;;;;;;;;4934717;29;20035;-64
2022/01/31 14:16:34;;;;;;;23.45;7.70;;;;;;;;;;4934539;29;20028;-64
2022/01/31 14:19:02;;;;;;;27.38;7.93;;;;;;;;;;4934217;29;20056;-63
2022/01/31 14:21:29;;;;;;;22.80;6.45;;;;;;;;;;4933815;29;20032;-64
2022/01/31 14:23:56;;;;;;;24.55;7.72;;;;;;;;;;4934355;29;20033;-63
2022/01/31 14:26:33;;;;;;;24.15;7.57;;;;;;;;;;4933980;29;20031;-63
2022/01/31 14:28:59;;;;;;;22.83;7.53;;;;;;;;;;4933954;29;20487;-65
2022/01/31 14:31:30;;;;;;;23.67;7.28;;;;;;;;;;4933718;29;20049;-63
2022/01/31 14:33:56;;;;;;;23.13;6.60;;;;;;;;;;4933980;29;20027;-63
2022/01/31 14:36:23;;;;;;;18.10;6.03;;;;;;;;;;4933982;29;20153;-63
2022/01/31 14:42:04;;;;;;;23.33;6.35;;;;;;;;;;4936432;29;20075;-63
2022/01/31 14:47:23;;;;;;;19.13;5.38;;;;;;;;;;4953326;29;20093;-64
2022/01/31 14:50:10;;;;;;;20.50;5.43;;;;;;;;;;4953062;29;20083;-64
2022/01/31 14:52:36;;;;;;;22.77;6.22;;;;;;;;;;4952537;29;20527;-64
2022/01/31 14:55:06;;;;;;;25.48;8.82;;;;;;;;;;4952709;28;20027;-63
2022/01/31 14:57:32;;;;;;;27.35;9.07;;;;;;;;;;4953125;29;20039;-63
2022/01/31 14:59:58;;;;;;;23.70;9.07;;;;;;;;;;4952495;29;20038;-64
2022/01/31 15:02:25;;;;;;;30.95;11.27;;;;;;;;;;4953014;29;20031;-63
2022/01/31 15:04:51;;;;;;;32.67;11.98;;;;;;;;;;4952658;29;20031;-63
2022/01/31 15:07:17;;;;;;;34.33;11.32;;;;;;;;;;4935029;29;20039;-63
2022/01/31 15:09:43;;;;;;;30.77;11.73;;;;;;;;;;4952476;29;20082;-63
2022/01/31 15:12:10;;;;;;;35.38;12.63;;;;;;;;;;4952611;29;20109;-63
2022/01/31 15:14:36;;;;;;;38.90;12.38;;;;;;;;;;4952282;29;20495;-63
2022/01/31 15:17:05;;;;;;;34.05;11.05;;;;;;;;;;4952273;29;20192;-63
2022/01/31 15:19:31;;;;;;;35.50;12.27;;;;;;;;;;4952391;29;20027;-63
2022/01/31 15:21:58;;;;;;;33.08;12.52;;;;;;;;;;4952381;29;20118;-63
2022/01/31 15:24:24;;;;;;;38.80;13.98;;;;;;;;;;4952468;29;20028;-63
2022/01/31 15:26:50;;;;;;;43.60;15.02;;;;;;;;;;4952115;29;20030;-63
2022/01/31 15:29:16;;;;;;;45.20;14.10;;;;;;;;;;4952604;29;20419;-64
2022/01/31 15:31:42;;;;;;;46.70;15.57;;;;;;;;;;4952516;29;20391;-63
2022/01/31 15:34:08;;;;;;;42.65;16.13;;;;;;;;;;4952370;29;20082;-63
2022/01/31 15:36:34;;;;;;;42.33;15.57;;;;;;;;;;4952584;29;20031;-63
2022/01/31 15:39:00;;;;;;;42.78;16.25;;;;;;;;;;4951792;29;20035;-63
2022/01/31 15:41:27;;;;;;;44.67;14.65;;;;;;;;;;4951715;29;20078;-64
2022/01/31 15:43:57;;;;;;;38.22;14.27;;;;;;;;;;4952046;29;20487;-63
2022/01/31 15:46:24;;;;;;;48.55;15.38;;;;;;;;;;4952098;29;20039;-62
2022/01/31 15:48:50;;;;;;;46.15;17.95;;;;;;;;;;4951832;29;20026;-63
2022/01/31 15:51:16;;;;;;;45.85;16.98;;;;;;;;;;4952112;29;20139;-63
2022/01/31 15:53:42;;;;;;;42.88;16.10;;;;;;;;;;4952385;29;20357;-63
2022/01/31 15:56:09;;;;;;;47.28;16.92;;;;;;;;;;4952466;29;20043;-62
2022/01/31 15:58:35;;;;;;;46.95;18.88;;;;;;;;;;4951823;29;20102;-62
2022/01/31 16:01:06;;;;;;;58.92;22.42;;;;;;;;;;4952099;29;20387;-63
2022/01/31 16:03:32;;;;;;;42.73;17.67;;;;;;;;;;4952339;29;20015;-63
2022/01/31 16:05:58;;;;;;;62.92;24.40;;;;;;;;;;4952060;28;20253;-63
2022/01/31 16:08:25;;;;;;;66.32;24.05;;;;;;;;;;4956097;29;20027;-62
2022/01/31 16:10:51;;;;;;;72.88;27.00;;;;;;;;;;4955476;29;20046;-63
2022/01/31 16:13:20;;;;;;;73.28;27.50;;;;;;;;;;4956169;29;20035;-63
2022/01/31 16:15:47;;;;;;;69.85;27.30;;;;;;;;;;4955975;29;20035;-63
2022/01/31 16:18:14;;;;;;;71.30;26.83;;;;;;;;;;4955902;29;20024;-63
2022/01/31 16:20:40;;;;;;;76.40;28.90;;;;;;;;;;4955574;29;20023;-62
2022/01/31 16:23:06;;;;;;;83.65;29.55;;;;;;;;;;4955976;29;20027;-62
2022/01/31 16:25:33;;;;;;;83.55;32.05;;;;;;;;;;4955811;29;20070;-62
2022/01/31 16:28:04;;;;;;;85.57;32.08;;;;;;;;;;4955756;29;20483;-63
2022/01/31 16:30:31;;;;;;;82.57;32.20;;;;;;;;;;4955608;29;20169;-63
2022/01/31 16:32:57;;;;;;;77.35;29.98;;;;;;;;;;4955281;29;20027;-62
2022/01/31 16:35:23;;;;;;;75.75;30.23;;;;;;;;;;4954902;29;20574;-62
2022/01/31 16:37:50;;;;;;;70.78;28.80;;;;;;;;;;4955414;29;20039;-63
2022/01/31 16:40:16;;;;;;;65.10;26.80;;;;;;;;;;4955153;29;20030;-62
2022/01/31 16:42:43;;;;;;;75.03;30.13;;;;;;;;;;4954688;29;20047;-63
2022/01/31 16:45:10;;;;;;;90.45;34.03;;;;;;;;;;4955291;29;20055;-63
2022/01/31 16:47:39;;;;;;;82.93;30.67;;;;;;;;;;4955493;29;20034;-63
2022/01/31 16:50:06;;;;;;;68.22;26.50;;;;;;;;;;4955054;29;20027;-63
2022/01/31 16:52:35;;;;;;;78.55;29.55;;;;;;;;;;4954790;29;20047;-62
2022/01/31 16:55:01;;;;;;;83.13;32.42;;;;;;;;;;4955302;29;20065;-62
2022/01/31 16:57:28;;;;;;;88.78;33.90;;;;;;;;;;4937961;29;20090;-64
2022/01/31 16:59:54;;;;;;;78.00;30.30;;;;;;;;;;4955238;29;20027;-64
2022/01/31 17:02:20;;;;;;;72.95;25.40;;;;;;;;;;4955243;29;20034;-64
2022/01/31 17:04:46;;;;;;;56.90;22.05;;;;;;;;;;4954675;29;20035;-62
2022/01/31 17:07:12;;;;;;;51.35;20.33;;;;;;;;;;4955213;29;20031;-63
2022/01/31 17:09:38;;;;;;;43.13;16.42;;;;;;;;;;4955031;29;20514;-63
2022/01/31 17:12:05;;;;;;;44.95;17.55;;;;;;;;;;4954885;29;20043;-63
2022/01/31 17:14:31;;;;;;;40.45;14.85;;;;;;;;;;4954547;29;20579;-63
2022/01/31 17:16:57;;;;;;;50.08;17.30;;;;;;;;;;4955002;29;20038;-63
2022/01/31 17:19:23;;;;;;;57.67;17.58;;;;;;;;;;4954690;29;20506;-63
2022/01/31 17:21:49;;;;;;;53.58;16.38;;;;;;;;;;4954903;29;20493;-63
2022/01/31 17:24:15;;;;;;;49.20;16.85;;;;;;;;;;4954428;29;20031;-63
2022/01/31 17:26:42;;;;;;;46.30;15.77;;;;;;;;;;4954392;29;20050;-63
2022/01/31 17:29:10;;;;;;;41.58;13.30;;;;;;;;;;4954491;29;20042;-63
2022/01/31 17:31:36;;;;;;;35.92;13.25;;;;;;;;;;4954440;29;20039;-64
2022/01/31 17:34:02;;;;;;;48.40;15.40;;;;;;;;;;4954686;29;20023;-63
2022/01/31 17:36:29;;;;;;;45.67;16.00;;;;;;;;;;4954376;29;20023;-63
2022/01/31 17:38:55;;;;;;;45.58;17.27;;;;;;;;;;4954025;29;20050;-63
2022/01/31 17:41:21;;;;;;;47.20;18.67;;;;;;;;;;4953820;29;20395;-63
2022/01/31 17:43:50;;;;;;;54.10;20.70;;;;;;;;;;4954116;29;20034;-63
2022/01/31 17:46:17;;;;;;;56.05;21.52;;;;;;;;;;4953598;29;20719;-63
2022/01/31 17:48:44;;;;;;;68.78;25.50;;;;;;;;;;4954262;29;20035;-64
2022/01/31 17:51:10;;;;;;;94.53;35.17;;;;;;;;;;4953949;29;20024;-63
2022/01/31 17:53:37;;;;;;;98.03;35.10;;;;;;;;;;4954217;29;20114;-64
2022/01/31 17:56:04;;;;;;;134.55;47.80;;;;;;;;;;4954331;29;20031;-64
2022/01/31 17:58:30;;;;;;;120.97;46.42;;;;;;;;;;4954062;29;20035;-64
2022/01/31 18:00:59;;;;;;;117.10;45.47;;;;;;;;;;4954058;29;20035;-63
2022/01/31 18:03:25;;;;;;;92.18;35.17;;;;;;;;;;4953968;29;20027;-63
2022/01/31 18:05:51;;;;;;;64.45;25.13;;;;;;;;;;4954129;29;20042;-63
2022/01/31 18:08:17;;;;;;;53.95;20.58;;;;;;;;;;4953993;29;20042;-64
2022/01/31 18:10:43;;;;;;;59.17;21.50;;;;;;;;;;4953468;29;20034;-64
2022/01/31 18:13:09;;;;;;;54.42;18.60;;;;;;;;;;4953352;29;20038;-63
2022/01/31 18:15:35;;;;;;;49.50;15.52;;;;;;;;;;4952981;29;20035;-63
2022/01/31 18:18:01;;;;;;;43.08;16.20;;;;;;;;;;4953741;29;20778;-64
2022/01/31 18:20:27;;;;;;;45.75;17.20;;;;;;;;;;4953862;29;20035;-62
2022/01/31 18:22:53;;;;;;;58.88;22.20;;;;;;;;;;4953718;29;20081;-63
2022/01/31 18:25:19;;;;;;;64.43;26.38;;;;;;;;;;4953788;29;20026;-63
2022/01/31 18:27:46;;;;;;;59.10;21.95;;;;;;;;;;4953562;29;20034;-63
2022/01/31 18:30:13;;;;;;;51.72;19.90;;;;;;;;;;4958014;28;20126;-63
2022/01/31 18:32:47;;;;;;;48.45;19.42;;;;;;;;;;4970378;28;20030;-63
2022/01/31 18:35:16;;;;;;;53.05;19.38;;;;;;;;;;4972557;28;20038;-64
2022/01/31 18:37:42;;;;;;;47.17;18.73;;;;;;;;;;4941471;29;20066;-63
2022/01/31 18:40:09;;;;;;;37.90;14.52;;;;;;;;;;4953273;29;20039;-63
2022/01/31 18:42:35;;;;;;;47.92;16.88;;;;;;;;;;4935964;29;20047;-63
2022/01/31 18:45:02;;;;;;;43.67;16.95;;;;;;;;;;4954017;29;20039;-64
2022/01/31 18:47:28;;;;;;;43.75;15.73;;;;;;;;;;4937701;29;20019;-63
2022/01/31 18:49:55;;;;;;;44.42;14.70;;;;;;;;;;4953162;29;20031;-62
2022/01/31 18:52:27;;;;;;;42.95;16.85;;;;;;;;;;4934978;29;20078;-63
2022/01/31 18:54:53;;;;;;;45.22;17.08;;;;;;;;;;4953145;29;20537;-63
2022/01/31 18:57:19;;;;;;;43.72;15.98;;;;;;;;;;4953211;29;20054;-62
2022/01/31 18:59:45;;;;;;;43.53;13.90;;;;;;;;;;4952942;29;20378;-63
2022/01/31 19:02:12;;;;;;;38.75;14.70;;;;;;;;;;4952968;29;20051;-63
2022/01/31 19:04:39;;;;;;;37.67;13.63;;;;;;;;;;4952931;29;20038;-63
2022/01/31 19:07:05;;;;;;;38.92;13.48;;;;;;;;;;4952887;29;20031;-63
2022/01/31 19:09:32;;;;;;;36.70;13.68;;;;;;;;;;4952665;29;20507;-64
2022/01/31 19:12:01;;;;;;;39.50;12.95;;;;;;;;;;4952344;29;20499;-62
2022/01/31 19:17:06;;;;;;;31.83;12.25;;;;;;;;;;4969672;28;20093;-62
2022/01/31 19:19:33;;;;;;;36.65;13.18;;;;;;;;;;4971977;28;20027;-62
2022/01/31 19:21:59;;;;;;;38.53;13.90;;;;;;;;;;4971404;28;20034;-61
2022/01/31 19:24:25;;;;;;;40.75;14.40;;;;;;;;;;4971830;28;20076;-62
2022/01/31 19:26:51;;;;;;;42.85;15.23;;;;;;;;;;4971989;28;20142;-62
2022/01/31 19:29:20;;;;;;;45.92;14.88;;;;;;;;;;4971943;28;20334;-62
2022/01/31 19:31:46;;;;;;;35.97;14.90;;;;;;;;;;4940728;28;20115;-62
2022/01/31 19:34:12;;;;;;;40.28;14.88;;;;;;;;;;4932872;29;20028;-63
2022/01/31 19:36:39;;;;;;;46.13;16.25;;;;;;;;;;4933208;29;20031;-61